sensor_id;sensor_type;location;lat;lon;timestamp;P1;durP1;ratioP1;P2;durP2;ratioP2
19609;SDS011;9952;47.122;-1.638;2024-03-08T00:03:57;7.97;;;4.13;;
19609;SDS011;9952;47.122;-1.638;2024-03-08T00:08:37;7.07;;;3.73;;
19609;SDS011;9952;47.122;-1.638;2024-03-08T00:13:18;6.63;;;3.80;;
19609;SDS011;9952;47.122;-1.638;2024-03-08T00:17:58;5.67;;;3.50;;
19609;SDS011;9952;47.122;-1.638;2024-03-08T00:22:39;7.87;;;3.60;;
19609;SDS011;9952;47.122;-1.638;2024-03-08T00:27:20;4.40;;;3.47;;
19609;SDS011;9952;47.122;-1.638;2024-03-08T00:32:01;5.80;;;3.70;;
19609;SDS011;9952;47.122;-1.638;2024-03-08T00:36:42;8.70;;;3.73;;
19609;SDS011;9952;47.122;-1.638;2024-03-08T00:41:24;5.17;;;3.40;;
19609;SDS011;9952;47.122;-1.638;2024-03-08T00:46:06;5.73;;;3.77;;
19609;SDS011;9952;47.122;-1.638;2024-03-08T00:50:47;6.27;;;3.57;;
19609;SDS011;9952;47.122;-1.638;2024-03-08T00:55:28;6.13;;;3.50;;
19609;SDS011;9952;47.122;-1.638;2024-03-08T01:00:09;6.00;;;3.50;;
19609;SDS011;9952;47.122;-1.638;2024-03-08T01:04:52;8.37;;;3.47;;
19609;SDS011;9952;47.122;-1.638;2024-03-08T01:09:33;4.57;;;3.27;;
19609;SDS011;9952;47.122;-1.638;2024-03-08T01:14:14;7.97;;;3.87;;
19609;SDS011;9952;47.122;-1.638;2024-03-08T01:18:54;6.30;;;3.60;;
19609;SDS011;9952;47.122;-1.638;2024-03-08T01:23:35;8.23;;;3.47;;
19609;SDS011;9952;47.122;-1.638;2024-03-08T01:28:16;7.10;;;3.87;;
19609;SDS011;9952;47.122;-1.638;2024-03-08T01:32:56;4.40;;;3.50;;
19609;SDS011;9952;47.122;-1.638;2024-03-08T01:37:37;6.30;;;3.53;;
19609;SDS011;9952;47.122;-1.638;2024-03-08T01:42:18;5.50;;;3.63;;
19609;SDS011;9952;47.122;-1.638;2024-03-08T01:46:58;5.63;;;3.87;;
19609;SDS011;9952;47.122;-1.638;2024-03-08T01:51:40;4.63;;;3.33;;
19609;SDS011;9952;47.122;-1.638;2024-03-08T01:56:22;6.03;;;3.83;;
19609;SDS011;9952;47.122;-1.638;2024-03-08T02:01:03;6.27;;;3.50;;
19609;SDS011;9952;47.122;-1.638;2024-03-08T02:05:44;5.27;;;3.53;;
19609;SDS011;9952;47.122;-1.638;2024-03-08T02:10:24;7.07;;;3.57;;
19609;SDS011;9952;47.122;-1.638;2024-03-08T02:15:05;5.87;;;3.43;;
19609;SDS011;9952;47.122;-1.638;2024-03-08T02:19:46;7.70;;;3.50;;
19609;SDS011;9952;47.122;-1.638;2024-03-08T02:24:27;5.83;;;3.60;;
19609;SDS011;9952;47.122;-1.638;2024-03-08T02:29:08;5.23;;;3.87;;
19609;SDS011;9952;47.122;-1.638;2024-03-08T02:33:49;5.97;;;3.77;;
19609;SDS011;9952;47.122;-1.638;2024-03-08T02:38:30;4.40;;;3.47;;
19609;SDS011;9952;47.122;-1.638;2024-03-08T02:43:11;6.33;;;3.40;;
19609;SDS011;9952;47.122;-1.638;2024-03-08T02:47:52;4.80;;;3.87;;
19609;SDS011;9952;47.122;-1.638;2024-03-08T02:52:33;5.53;;;3.43;;
19609;SDS011;9952;47.122;-1.638;2024-03-08T02:57:15;5.00;;;3.27;;
19609;SDS011;9952;47.122;-1.638;2024-03-08T03:01:56;5.03;;;3.13;;
19609;SDS011;9952;47.122;-1.638;2024-03-08T03:06:36;5.00;;;3.60;;
19609;SDS011;9952;47.122;-1.638;2024-03-08T03:11:17;5.57;;;3.37;;
19609;SDS011;9952;47.122;-1.638;2024-03-08T03:15:58;4.40;;;2.90;;
19609;SDS011;9952;47.122;-1.638;2024-03-08T03:20:39;7.67;;;3.20;;
19609;SDS011;9952;47.122;-1.638;2024-03-08T03:25:22;6.57;;;3.77;;
19609;SDS011;9952;47.122;-1.638;2024-03-08T03:30:09;3.87;;;3.20;;
19609;SDS011;9952;47.122;-1.638;2024-03-08T03:35:02;4.77;;;3.33;;
19609;SDS011;9952;47.122;-1.638;2024-03-08T03:39:45;4.43;;;3.43;;
19609;SDS011;9952;47.122;-1.638;2024-03-08T03:44:29;5.83;;;3.77;;
19609;SDS011;9952;47.122;-1.638;2024-03-08T03:49:10;5.10;;;3.60;;
19609;SDS011;9952;47.122;-1.638;2024-03-08T03:53:50;6.03;;;3.37;;
19609;SDS011;9952;47.122;-1.638;2024-03-08T03:58:31;6.13;;;3.53;;
19609;SDS011;9952;47.122;-1.638;2024-03-08T04:03:12;7.17;;;3.80;;
19609;SDS011;9952;47.122;-1.638;2024-03-08T04:07:53;6.23;;;4.10;;
19609;SDS011;9952;47.122;-1.638;2024-03-08T04:12:34;4.17;;;3.37;;
19609;SDS011;9952;47.122;-1.638;2024-03-08T04:17:14;7.37;;;3.57;;
19609;SDS011;9952;47.122;-1.638;2024-03-08T04:21:55;5.80;;;3.93;;
19609;SDS011;9952;47.122;-1.638;2024-03-08T04:26:36;5.63;;;3.57;;
19609;SDS011;9952;47.122;-1.638;2024-03-08T04:31:16;5.63;;;3.87;;
19609;SDS011;9952;47.122;-1.638;2024-03-08T04:35:57;5.87;;;3.57;;
19609;SDS011;9952;47.122;-1.638;2024-03-08T04:40:38;5.77;;;3.43;;
19609;SDS011;9952;47.122;-1.638;2024-03-08T04:45:19;4.47;;;3.70;;
19609;SDS011;9952;47.122;-1.638;2024-03-08T04:49:59;9.17;;;4.07;;
19609;SDS011;9952;47.122;-1.638;2024-03-08T04:54:40;6.93;;;3.80;;
19609;SDS011;9952;47.122;-1.638;2024-03-08T04:59:21;6.70;;;4.13;;
19609;SDS011;9952;47.122;-1.638;2024-03-08T05:04:01;6.57;;;4.13;;
19609;SDS011;9952;47.122;-1.638;2024-03-08T05:08:42;6.70;;;3.47;;
19609;SDS011;9952;47.122;-1.638;2024-03-08T05:13:23;8.67;;;4.43;;
19609;SDS011;9952;47.122;-1.638;2024-03-08T05:18:03;6.07;;;4.13;;
19609;SDS011;9952;47.122;-1.638;2024-03-08T05:22:44;6.60;;;4.07;;
19609;SDS011;9952;47.122;-1.638;2024-03-08T05:27:26;5.83;;;3.90;;
19609;SDS011;9952;47.122;-1.638;2024-03-08T05:32:08;6.57;;;4.17;;
19609;SDS011;9952;47.122;-1.638;2024-03-08T05:36:49;8.47;;;4.60;;
19609;SDS011;9952;47.122;-1.638;2024-03-08T05:41:30;6.10;;;3.83;;
19609;SDS011;9952;47.122;-1.638;2024-03-08T05:46:11;7.70;;;4.30;;
19609;SDS011;9952;47.122;-1.638;2024-03-08T05:50:55;6.73;;;3.97;;
19609;SDS011;9952;47.122;-1.638;2024-03-08T05:55:37;4.83;;;3.57;;
19609;SDS011;9952;47.122;-1.638;2024-03-08T06:00:17;9.17;;;3.87;;
19609;SDS011;9952;47.122;-1.638;2024-03-08T06:04:59;6.43;;;3.90;;
19609;SDS011;9952;47.122;-1.638;2024-03-08T06:09:42;8.73;;;4.20;;
19609;SDS011;9952;47.122;-1.638;2024-03-08T06:14:25;6.40;;;4.30;;
19609;SDS011;9952;47.122;-1.638;2024-03-08T06:19:05;8.20;;;3.90;;
19609;SDS011;9952;47.122;-1.638;2024-03-08T06:23:46;6.00;;;3.40;;
19609;SDS011;9952;47.122;-1.638;2024-03-08T06:28:27;6.47;;;3.77;;
19609;SDS011;9952;47.122;-1.638;2024-03-08T06:33:07;6.07;;;3.53;;
19609;SDS011;9952;47.122;-1.638;2024-03-08T06:37:48;6.80;;;4.20;;
19609;SDS011;9952;47.122;-1.638;2024-03-08T06:42:29;6.50;;;3.63;;
19609;SDS011;9952;47.122;-1.638;2024-03-08T06:47:13;8.87;;;4.83;;
19609;SDS011;9952;47.122;-1.638;2024-03-08T06:51:55;7.17;;;3.67;;
19609;SDS011;9952;47.122;-1.638;2024-03-08T06:56:37;5.73;;;3.40;;
19609;SDS011;9952;47.122;-1.638;2024-03-08T07:01:18;7.37;;;4.17;;
19609;SDS011;9952;47.122;-1.638;2024-03-08T07:05:58;7.23;;;4.07;;
19609;SDS011;9952;47.122;-1.638;2024-03-08T07:10:39;6.73;;;3.80;;
19609;SDS011;9952;47.122;-1.638;2024-03-08T07:15:25;6.77;;;3.90;;
19609;SDS011;9952;47.122;-1.638;2024-03-08T07:20:06;4.67;;;3.47;;
19609;SDS011;9952;47.122;-1.638;2024-03-08T07:24:51;6.47;;;3.60;;
19609;SDS011;9952;47.122;-1.638;2024-03-08T07:29:47;5.93;;;3.53;;
19609;SDS011;9952;47.122;-1.638;2024-03-08T07:34:28;4.63;;;3.50;;
19609;SDS011;9952;47.122;-1.638;2024-03-08T07:39:13;5.87;;;3.73;;
19609;SDS011;9952;47.122;-1.638;2024-03-08T07:43:54;12.47;;;4.10;;
19609;SDS011;9952;47.122;-1.638;2024-03-08T07:48:35;5.67;;;3.60;;
19609;SDS011;9952;47.122;-1.638;2024-03-08T07:53:16;9.00;;;4.80;;
19609;SDS011;9952;47.122;-1.638;2024-03-08T07:57:57;9.00;;;4.37;;
19609;SDS011;9952;47.122;-1.638;2024-03-08T08:02:38;7.37;;;3.70;;
19609;SDS011;9952;47.122;-1.638;2024-03-08T08:07:18;6.57;;;3.93;;
19609;SDS011;9952;47.122;-1.638;2024-03-08T08:11:59;6.53;;;4.20;;
19609;SDS011;9952;47.122;-1.638;2024-03-08T08:16:42;7.97;;;4.33;;
19609;SDS011;9952;47.122;-1.638;2024-03-08T08:21:25;9.47;;;4.13;;
19609;SDS011;9952;47.122;-1.638;2024-03-08T08:26:06;7.17;;;3.93;;
19609;SDS011;9952;47.122;-1.638;2024-03-08T08:30:47;6.07;;;4.23;;
19609;SDS011;9952;47.122;-1.638;2024-03-08T08:35:31;10.03;;;5.43;;
19609;SDS011;9952;47.122;-1.638;2024-03-08T08:40:12;10.73;;;4.60;;
19609;SDS011;9952;47.122;-1.638;2024-03-08T08:44:57;7.83;;;3.87;;
19609;SDS011;9952;47.122;-1.638;2024-03-08T08:49:38;9.77;;;4.83;;
19609;SDS011;9952;47.122;-1.638;2024-03-08T08:54:19;8.97;;;4.47;;
19609;SDS011;9952;47.122;-1.638;2024-03-08T08:59:00;9.30;;;4.10;;
19609;SDS011;9952;47.122;-1.638;2024-03-08T09:03:41;9.73;;;4.90;;
19609;SDS011;9952;47.122;-1.638;2024-03-08T09:08:21;8.67;;;4.50;;
19609;SDS011;9952;47.122;-1.638;2024-03-08T09:13:03;9.67;;;3.83;;
19609;SDS011;9952;47.122;-1.638;2024-03-08T09:17:44;6.93;;;3.90;;
19609;SDS011;9952;47.122;-1.638;2024-03-08T09:22:26;8.13;;;3.30;;
19609;SDS011;9952;47.122;-1.638;2024-03-08T09:27:06;6.90;;;3.17;;
19609;SDS011;9952;47.122;-1.638;2024-03-08T09:31:49;6.43;;;3.33;;
19609;SDS011;9952;47.122;-1.638;2024-03-08T09:36:31;7.97;;;3.70;;
19609;SDS011;9952;47.122;-1.638;2024-03-08T09:41:12;6.23;;;3.23;;
19609;SDS011;9952;47.122;-1.638;2024-03-08T09:45:53;4.93;;;3.40;;
19609;SDS011;9952;47.122;-1.638;2024-03-08T09:50:35;10.73;;;3.50;;
19609;SDS011;9952;47.122;-1.638;2024-03-08T09:55:16;7.53;;;2.67;;
19609;SDS011;9952;47.122;-1.638;2024-03-08T10:00:02;8.20;;;3.40;;
19609;SDS011;9952;47.122;-1.638;2024-03-08T10:04:58;3.60;;;2.70;;
19609;SDS011;9952;47.122;-1.638;2024-03-08T10:09:39;3.90;;;2.50;;
19609;SDS011;9952;47.122;-1.638;2024-03-08T10:14:19;8.53;;;2.63;;
19609;SDS011;9952;47.122;-1.638;2024-03-08T10:19:01;7.30;;;2.73;;
19609;SDS011;9952;47.122;-1.638;2024-03-08T10:23:43;7.93;;;2.70;;
19609;SDS011;9952;47.122;-1.638;2024-03-08T10:28:24;8.93;;;2.97;;
19609;SDS011;9952;47.122;-1.638;2024-03-08T10:33:05;6.30;;;2.90;;
19609;SDS011;9952;47.122;-1.638;2024-03-08T10:37:47;4.80;;;2.27;;
19609;SDS011;9952;47.122;-1.638;2024-03-08T10:42:29;5.70;;;2.70;;
19609;SDS011;9952;47.122;-1.638;2024-03-08T10:47:17;6.27;;;2.23;;
19609;SDS011;9952;47.122;-1.638;2024-03-08T10:52:03;4.60;;;1.90;;
19609;SDS011;9952;47.122;-1.638;2024-03-08T10:56:45;6.97;;;2.40;;
19609;SDS011;9952;47.122;-1.638;2024-03-08T11:01:28;4.93;;;1.83;;
19609;SDS011;9952;47.122;-1.638;2024-03-08T11:11:03;5.93;;;2.37;;
19609;SDS011;9952;47.122;-1.638;2024-03-08T11:15:44;6.73;;;2.53;;
19609;SDS011;9952;47.122;-1.638;2024-03-08T11:20:28;6.13;;;2.57;;
19609;SDS011;9952;47.122;-1.638;2024-03-08T11:25:30;5.07;;;2.20;;
19609;SDS011;9952;47.122;-1.638;2024-03-08T11:30:16;8.00;;;2.70;;
19609;SDS011;9952;47.122;-1.638;2024-03-08T11:35:07;3.53;;;2.03;;
19609;SDS011;9952;47.122;-1.638;2024-03-08T11:39:58;7.43;;;2.50;;
19609;SDS011;9952;47.122;-1.638;2024-03-08T11:44:39;6.03;;;2.13;;
19609;SDS011;9952;47.122;-1.638;2024-03-08T11:49:24;4.50;;;2.20;;
19609;SDS011;9952;47.122;-1.638;2024-03-08T11:54:06;4.97;;;2.13;;
19609;SDS011;9952;47.122;-1.638;2024-03-08T11:58:52;8.13;;;2.40;;
19609;SDS011;9952;47.122;-1.638;2024-03-08T12:03:36;5.40;;;2.10;;
19609;SDS011;9952;47.122;-1.638;2024-03-08T12:08:18;10.33;;;2.70;;
19609;SDS011;9952;47.122;-1.638;2024-03-08T12:12:59;7.43;;;2.30;;
19609;SDS011;9952;47.122;-1.638;2024-03-08T12:17:39;7.40;;;2.20;;
19609;SDS011;9952;47.122;-1.638;2024-03-08T12:22:24;6.67;;;2.10;;
19609;SDS011;9952;47.122;-1.638;2024-03-08T12:27:19;2.67;;;1.70;;
19609;SDS011;9952;47.122;-1.638;2024-03-08T12:32:00;7.67;;;1.63;;
19609;SDS011;9952;47.122;-1.638;2024-03-08T12:36:50;5.87;;;1.60;;
19609;SDS011;9952;47.122;-1.638;2024-03-08T12:41:38;2.27;;;0.90;;
19609;SDS011;9952;47.122;-1.638;2024-03-08T12:46:20;4.90;;;1.80;;
19609;SDS011;9952;47.122;-1.638;2024-03-08T12:51:09;3.33;;;1.40;;
19609;SDS011;9952;47.122;-1.638;2024-03-08T12:55:50;4.90;;;1.00;;
19609;SDS011;9952;47.122;-1.638;2024-03-08T13:00:32;6.13;;;1.33;;
19609;SDS011;9952;47.122;-1.638;2024-03-08T13:05:16;2.13;;;0.70;;
19609;SDS011;9952;47.122;-1.638;2024-03-08T13:09:57;4.63;;;0.87;;
19609;SDS011;9952;47.122;-1.638;2024-03-08T13:14:42;4.67;;;1.10;;
19609;SDS011;9952;47.122;-1.638;2024-03-08T13:19:23;2.50;;;0.80;;
19609;SDS011;9952;47.122;-1.638;2024-03-08T13:24:04;2.17;;;0.80;;
19609;SDS011;9952;47.122;-1.638;2024-03-08T13:28:45;4.53;;;1.10;;
19609;SDS011;9952;47.122;-1.638;2024-03-08T13:33:26;6.10;;;0.90;;
19609;SDS011;9952;47.122;-1.638;2024-03-08T13:38:07;4.00;;;1.10;;
19609;SDS011;9952;47.122;-1.638;2024-03-08T13:42:49;6.80;;;1.23;;
19609;SDS011;9952;47.122;-1.638;2024-03-08T13:47:30;5.87;;;0.93;;
19609;SDS011;9952;47.122;-1.638;2024-03-08T13:52:11;3.40;;;1.40;;
19609;SDS011;9952;47.122;-1.638;2024-03-08T13:56:55;11.03;;;5.40;;
19609;SDS011;9952;47.122;-1.638;2024-03-08T14:01:36;5.50;;;1.53;;
19609;SDS011;9952;47.122;-1.638;2024-03-08T14:06:17;8.43;;;1.53;;
19609;SDS011;9952;47.122;-1.638;2024-03-08T14:10:57;6.57;;;1.63;;
19609;SDS011;9952;47.122;-1.638;2024-03-08T14:15:38;10.97;;;2.13;;
19609;SDS011;9952;47.122;-1.638;2024-03-08T14:20:22;5.37;;;2.00;;
19609;SDS011;9952;47.122;-1.638;2024-03-08T14:25:05;6.40;;;1.83;;
19609;SDS011;9952;47.122;-1.638;2024-03-08T14:29:46;4.50;;;1.73;;
19609;SDS011;9952;47.122;-1.638;2024-03-08T14:34:27;2.37;;;1.40;;
19609;SDS011;9952;47.122;-1.638;2024-03-08T14:39:09;3.17;;;1.37;;
19609;SDS011;9952;47.122;-1.638;2024-03-08T14:43:50;3.57;;;1.40;;
19609;SDS011;9952;47.122;-1.638;2024-03-08T14:48:33;4.43;;;1.50;;
19609;SDS011;9952;47.122;-1.638;2024-03-08T14:53:16;2.63;;;1.10;;
19609;SDS011;9952;47.122;-1.638;2024-03-08T14:57:58;4.57;;;1.03;;
19609;SDS011;9952;47.122;-1.638;2024-03-08T15:02:39;3.50;;;0.80;;
19609;SDS011;9952;47.122;-1.638;2024-03-08T15:07:19;5.00;;;1.17;;
19609;SDS011;9952;47.122;-1.638;2024-03-08T15:12:00;6.17;;;1.20;;
19609;SDS011;9952;47.122;-1.638;2024-03-08T15:16:41;5.63;;;1.60;;
19609;SDS011;9952;47.122;-1.638;2024-03-08T15:21:22;2.67;;;1.30;;
19609;SDS011;9952;47.122;-1.638;2024-03-08T15:26:05;3.73;;;1.47;;
19609;SDS011;9952;47.122;-1.638;2024-03-08T15:30:47;6.20;;;1.10;;
19609;SDS011;9952;47.122;-1.638;2024-03-08T15:35:34;4.40;;;1.33;;
19609;SDS011;9952;47.122;-1.638;2024-03-08T15:40:15;4.30;;;1.73;;
19609;SDS011;9952;47.122;-1.638;2024-03-08T15:45:01;5.50;;;1.60;;
19609;SDS011;9952;47.122;-1.638;2024-03-08T15:49:43;5.10;;;1.83;;
19609;SDS011;9952;47.122;-1.638;2024-03-08T15:54:24;5.17;;;1.30;;
19609;SDS011;9952;47.122;-1.638;2024-03-08T15:59:05;7.23;;;1.67;;
19609;SDS011;9952;47.122;-1.638;2024-03-08T16:03:46;2.83;;;1.17;;
19609;SDS011;9952;47.122;-1.638;2024-03-08T16:08:29;4.13;;;1.20;;
19609;SDS011;9952;47.122;-1.638;2024-03-08T16:13:10;2.33;;;0.90;;
19609;SDS011;9952;47.122;-1.638;2024-03-08T16:17:51;2.60;;;0.73;;
19609;SDS011;9952;47.122;-1.638;2024-03-08T16:22:32;2.43;;;1.00;;
19609;SDS011;9952;47.122;-1.638;2024-03-08T16:27:13;2.27;;;0.87;;
19609;SDS011;9952;47.122;-1.638;2024-03-08T16:31:56;3.53;;;1.10;;
19609;SDS011;9952;47.122;-1.638;2024-03-08T16:36:37;1.27;;;1.00;;
19609;SDS011;9952;47.122;-1.638;2024-03-08T16:41:20;3.50;;;1.20;;
19609;SDS011;9952;47.122;-1.638;2024-03-08T16:46:01;1.93;;;1.40;;
19609;SDS011;9952;47.122;-1.638;2024-03-08T16:50:43;3.33;;;1.20;;
19609;SDS011;9952;47.122;-1.638;2024-03-08T16:55:25;2.80;;;1.00;;
19609;SDS011;9952;47.122;-1.638;2024-03-08T17:00:06;2.97;;;1.20;;
19609;SDS011;9952;47.122;-1.638;2024-03-08T17:04:53;1.50;;;1.00;;
19609;SDS011;9952;47.122;-1.638;2024-03-08T17:09:34;3.20;;;1.43;;
19609;SDS011;9952;47.122;-1.638;2024-03-08T17:14:15;6.37;;;2.67;;
19609;SDS011;9952;47.122;-1.638;2024-03-08T17:18:55;7.93;;;4.60;;
19609;SDS011;9952;47.122;-1.638;2024-03-08T17:23:41;10.97;;;4.17;;
19609;SDS011;9952;47.122;-1.638;2024-03-08T17:28:22;11.60;;;4.37;;
19609;SDS011;9952;47.122;-1.638;2024-03-08T17:33:06;11.43;;;4.63;;
19609;SDS011;9952;47.122;-1.638;2024-03-08T17:37:50;6.57;;;3.70;;
19609;SDS011;9952;47.122;-1.638;2024-03-08T17:42:32;8.67;;;3.63;;
19609;SDS011;9952;47.122;-1.638;2024-03-08T17:47:12;5.23;;;2.80;;
19609;SDS011;9952;47.122;-1.638;2024-03-08T17:51:55;4.57;;;2.50;;
19609;SDS011;9952;47.122;-1.638;2024-03-08T17:56:42;7.10;;;2.63;;
19609;SDS011;9952;47.122;-1.638;2024-03-08T18:01:23;4.37;;;2.30;;
19609;SDS011;9952;47.122;-1.638;2024-03-08T18:06:04;4.47;;;2.07;;
19609;SDS011;9952;47.122;-1.638;2024-03-08T18:10:46;3.87;;;2.17;;
19609;SDS011;9952;47.122;-1.638;2024-03-08T18:15:28;4.47;;;2.17;;
19609;SDS011;9952;47.122;-1.638;2024-03-08T18:20:11;5.13;;;2.30;;
19609;SDS011;9952;47.122;-1.638;2024-03-08T18:24:54;2.70;;;2.07;;
19609;SDS011;9952;47.122;-1.638;2024-03-08T18:29:35;2.83;;;2.30;;
19609;SDS011;9952;47.122;-1.638;2024-03-08T18:34:15;6.97;;;2.63;;
19609;SDS011;9952;47.122;-1.638;2024-03-08T18:38:56;3.60;;;1.97;;
19609;SDS011;9952;47.122;-1.638;2024-03-08T18:43:38;3.70;;;2.37;;
19609;SDS011;9952;47.122;-1.638;2024-03-08T18:48:19;5.10;;;1.77;;
19609;SDS011;9952;47.122;-1.638;2024-03-08T18:53:00;4.17;;;2.00;;
19609;SDS011;9952;47.122;-1.638;2024-03-08T18:57:42;4.00;;;1.73;;
19609;SDS011;9952;47.122;-1.638;2024-03-08T19:02:23;6.13;;;2.07;;
19609;SDS011;9952;47.122;-1.638;2024-03-08T19:07:04;5.47;;;1.83;;
19609;SDS011;9952;47.122;-1.638;2024-03-08T19:11:45;3.43;;;2.07;;
19609;SDS011;9952;47.122;-1.638;2024-03-08T19:16:25;5.40;;;2.10;;
19609;SDS011;9952;47.122;-1.638;2024-03-08T19:21:06;2.80;;;1.93;;
19609;SDS011;9952;47.122;-1.638;2024-03-08T19:25:47;4.20;;;2.27;;
19609;SDS011;9952;47.122;-1.638;2024-03-08T19:30:29;4.13;;;2.13;;
19609;SDS011;9952;47.122;-1.638;2024-03-08T19:35:11;3.07;;;2.00;;
19609;SDS011;9952;47.122;-1.638;2024-03-08T19:39:58;3.37;;;2.30;;
19609;SDS011;9952;47.122;-1.638;2024-03-08T19:44:39;3.73;;;2.07;;
19609;SDS011;9952;47.122;-1.638;2024-03-08T19:49:22;2.73;;;2.30;;
19609;SDS011;9952;47.122;-1.638;2024-03-08T19:54:03;4.37;;;2.07;;
19609;SDS011;9952;47.122;-1.638;2024-03-08T19:58:44;3.57;;;2.17;;
19609;SDS011;9952;47.122;-1.638;2024-03-08T20:03:24;1.97;;;1.67;;
19609;SDS011;9952;47.122;-1.638;2024-03-08T20:08:05;2.20;;;1.80;;
19609;SDS011;9952;47.122;-1.638;2024-03-08T20:12:53;3.03;;;2.13;;
19609;SDS011;9952;47.122;-1.638;2024-03-08T20:17:35;3.13;;;2.03;;
19609;SDS011;9952;47.122;-1.638;2024-03-08T20:22:16;2.40;;;2.00;;
19609;SDS011;9952;47.122;-1.638;2024-03-08T20:26:59;3.03;;;2.20;;
19609;SDS011;9952;47.122;-1.638;2024-03-08T20:31:41;2.60;;;2.03;;
19609;SDS011;9952;47.122;-1.638;2024-03-08T20:36:23;3.60;;;2.27;;
19609;SDS011;9952;47.122;-1.638;2024-03-08T20:41:06;2.73;;;2.27;;
19609;SDS011;9952;47.122;-1.638;2024-03-08T20:45:48;4.80;;;2.07;;
19609;SDS011;9952;47.122;-1.638;2024-03-08T20:50:29;5.20;;;2.10;;
19609;SDS011;9952;47.122;-1.638;2024-03-08T20:55:10;2.70;;;2.10;;
19609;SDS011;9952;47.122;-1.638;2024-03-08T20:59:53;3.23;;;2.10;;
19609;SDS011;9952;47.122;-1.638;2024-03-08T21:04:34;3.43;;;2.03;;
19609;SDS011;9952;47.122;-1.638;2024-03-08T21:09:15;2.97;;;2.60;;
19609;SDS011;9952;47.122;-1.638;2024-03-08T21:13:56;2.93;;;1.90;;
19609;SDS011;9952;47.122;-1.638;2024-03-08T21:18:36;2.40;;;2.10;;
19609;SDS011;9952;47.122;-1.638;2024-03-08T21:23:18;5.67;;;2.30;;
19609;SDS011;9952;47.122;-1.638;2024-03-08T21:32:40;3.47;;;2.40;;
19609;SDS011;9952;47.122;-1.638;2024-03-08T21:37:24;2.97;;;2.10;;
19609;SDS011;9952;47.122;-1.638;2024-03-08T21:42:04;1.87;;;1.60;;
19609;SDS011;9952;47.122;-1.638;2024-03-08T21:46:45;2.57;;;1.70;;
19609;SDS011;9952;47.122;-1.638;2024-03-08T21:51:28;2.83;;;1.73;;
19609;SDS011;9952;47.122;-1.638;2024-03-08T21:56:09;2.47;;;1.57;;
19609;SDS011;9952;47.122;-1.638;2024-03-08T22:00:50;4.83;;;1.73;;
19609;SDS011;9952;47.122;-1.638;2024-03-08T22:05:32;2.70;;;1.97;;
19609;SDS011;9952;47.122;-1.638;2024-03-08T22:10:14;2.10;;;1.90;;
19609;SDS011;9952;47.122;-1.638;2024-03-08T22:15:00;2.87;;;2.17;;
19609;SDS011;9952;47.122;-1.638;2024-03-08T22:19:41;3.33;;;2.10;;
19609;SDS011;9952;47.122;-1.638;2024-03-08T22:24:23;2.93;;;2.43;;
19609;SDS011;9952;47.122;-1.638;2024-03-08T22:29:04;4.93;;;2.20;;
19609;SDS011;9952;47.122;-1.638;2024-03-08T22:33:44;5.10;;;2.00;;
19609;SDS011;9952;47.122;-1.638;2024-03-08T22:38:26;3.00;;;2.20;;
19609;SDS011;9952;47.122;-1.638;2024-03-08T22:43:07;2.23;;;2.03;;
19609;SDS011;9952;47.122;-1.638;2024-03-08T22:47:47;2.70;;;2.10;;
19609;SDS011;9952;47.122;-1.638;2024-03-08T22:52:28;4.27;;;2.00;;
19609;SDS011;9952;47.122;-1.638;2024-03-08T22:57:09;2.57;;;1.90;;
19609;SDS011;9952;47.122;-1.638;2024-03-08T23:01:55;2.57;;;1.70;;
19609;SDS011;9952;47.122;-1.638;2024-03-08T23:06:37;4.00;;;2.03;;
19609;SDS011;9952;47.122;-1.638;2024-03-08T23:11:19;5.13;;;1.87;;
19609;SDS011;9952;47.122;-1.638;2024-03-08T23:16:01;3.10;;;1.77;;
19609;SDS011;9952;47.122;-1.638;2024-03-08T23:20:42;5.10;;;2.10;;
19609;SDS011;9952;47.122;-1.638;2024-03-08T23:25:23;2.30;;;2.00;;
19609;SDS011;9952;47.122;-1.638;2024-03-08T23:30:07;2.90;;;2.00;;
19609;SDS011;9952;47.122;-1.638;2024-03-08T23:34:50;2.40;;;1.90;;
19609;SDS011;9952;47.122;-1.638;2024-03-08T23:39:31;4.50;;;1.87;;
19609;SDS011;9952;47.122;-1.638;2024-03-08T23:44:12;1.93;;;1.73;;
19609;SDS011;9952;47.122;-1.638;2024-03-08T23:48:52;2.67;;;2.00;;
19609;SDS011;9952;47.122;-1.638;2024-03-08T23:53:33;2.67;;;2.20;;
19609;SDS011;9952;47.122;-1.638;2024-03-08T23:58:16;2.87;;;1.97;;
